Time;durP1;ratioP1;P1;durP2;ratioP2;P2;SDS_P1;SDS_P2;PMS_P1;PMS_P2;Temp;Humidity;BMP_temperature;BMP_pressure;BME280_temperature;BME280_humidity;BME280_pressure;Samples;Min_cycle;Max_cycle;Signal;HPM_P1;HPM_P2
2021/05/16 00:01:20;;;;;;;11.97;3.60;;;11.30;73.10;;;;;;5072857;28;20395;-77
2021/05/16 00:03:47;;;;;;;14.47;4.00;;;11.20;74.40;;;;;;5073893;28;20384;-73
2021/05/16 00:06:14;;;;;;;14.13;4.00;;;11.20;74.10;;;;;;5073397;28;20372;-76
2021/05/16 00:08:40;;;;;;;13.47;4.27;;;11.00;75.80;;;;;;5072998;28;20388;-76
2021/05/16 00:11:06;;;;;;;19.75;4.22;;;11.00;75.70;;;;;;5072934;28;20479;-74
2021/05/16 00:13:32;;;;;;;19.73;4.20;;;11.10;74.30;;;;;;5077702;28;20438;-74
2021/05/16 00:15:58;;;;;;;16.00;4.10;;;11.00;75.50;;;;;;5077406;28;20384;-75
2021/05/16 00:18:23;;;;;;;21.42;4.43;;;10.90;77.20;;;;;;5076012;28;20391;-75
2021/05/16 00:20:49;;;;;;;17.23;4.70;;;10.80;77.40;;;;;;5074419;28;20415;-74
2021/05/16 00:23:15;;;;;;;14.98;4.40;;;10.80;78.60;;;;;;5071349;28;20388;-76
2021/05/16 00:25:41;;;;;;;16.98;3.88;;;10.70;78.50;;;;;;5027633;28;1264766;-75
2021/05/16 00:28:06;;;;;;;18.13;4.37;;;10.80;78.80;;;;;;5067465;28;20479;-76
2021/05/16 00:30:33;;;;;;;12.27;4.07;;;10.70;78.40;;;;;;5053869;28;20882;-76
2021/05/16 00:33:00;;;;;;;23.08;4.97;;;10.70;79.70;;;;;;5055391;28;20752;-75
2021/05/16 00:35:28;;;;;;;14.90;4.30;;;10.70;78.60;;;;;;5075164;28;20388;-73
2021/05/16 00:37:55;;;;;;;19.52;4.80;;;10.70;78.70;;;;;;5075013;28;20384;-75
2021/05/16 00:40:23;;;;;;;20.27;3.85;;;10.60;80.40;;;;;;5074924;28;20404;-75
2021/05/16 00:42:48;;;;;;;17.60;3.70;;;10.70;79.00;;;;;;5074350;28;20395;-76
2021/05/16 00:45:19;;;;;;;16.37;4.47;;;10.80;77.70;;;;;;5074002;28;20827;-76
2021/05/16 00:47:51;;;;;;;17.35;4.22;;;10.80;77.80;;;;;;5075116;28;20383;-75
2021/05/16 00:50:19;;;;;;;20.40;4.55;;;11.00;76.70;;;;;;5075053;28;20423;-76
2021/05/16 00:52:45;;;;;;;18.53;4.33;;;11.00;73.40;;;;;;5073243;28;20390;-76
2021/05/16 00:55:13;;;;;;;16.30;4.05;;;11.10;74.40;;;;;;5073333;28;20480;-76
2021/05/16 00:57:39;;;;;;;20.08;4.07;;;11.10;74.20;;;;;;5073167;28;20384;-76
2021/05/16 01:00:07;;;;;;;17.87;4.13;;;11.10;75.30;;;;;;5071850;28;20479;-76
2021/05/16 01:02:33;;;;;;;20.25;4.40;;;11.30;71.90;;;;;;5072863;28;20430;-75
2021/05/16 01:04:59;;;;;;;17.80;4.80;;;11.30;70.60;;;;;;5072504;28;20467;-75
2021/05/16 01:07:25;;;;;;;16.75;4.72;;;11.30;70.30;;;;;;5072814;28;20443;-76
2021/05/16 01:09:50;;;;;;;14.57;4.15;;;11.30;69.30;;;;;;5072611;28;20379;-76
2021/05/16 01:12:17;;;;;;;17.95;4.30;;;11.40;68.80;;;;;;5073068;28;20388;-76
2021/05/16 01:14:45;;;;;;;19.63;5.15;;;11.40;67.30;;;;;;5072556;28;20479;-75
2021/05/16 01:17:11;;;;;;;25.95;4.53;;;11.40;69.30;;;;;;5073259;28;20383;-75
2021/05/16 01:19:37;;;;;;;18.15;4.30;;;11.40;68.80;;;;;;5072886;28;20376;-76
2021/05/16 01:22:05;;;;;;;19.83;4.40;;;11.40;69.20;;;;;;5072769;28;20878;-76
2021/05/16 01:24:31;;;;;;;17.85;4.50;;;11.40;68.40;;;;;;5072817;28;20383;-76
2021/05/16 01:27:00;;;;;;;9.32;3.60;;;11.30;69.00;;;;;;5072550;28;20778;-76
2021/05/16 01:29:27;;;;;;;18.58;4.47;;;11.20;69.60;;;;;;5054958;28;20414;-75
2021/05/16 01:31:53;;;;;;;17.50;4.60;;;11.10;70.80;;;;;;5051035;28;20412;-76
2021/05/16 01:34:21;;;;;;;23.98;4.30;;;11.10;69.50;;;;;;5065657;28;20380;-77
2021/05/16 01:36:46;;;;;;;17.30;3.90;;;11.10;70.30;;;;;;5072381;28;20578;-76
2021/05/16 01:39:14;;;;;;;13.50;4.20;;;11.10;70.10;;;;;;5072177;28;20392;-75
2021/05/16 01:41:41;;;;;;;21.65;4.68;;;11.00;70.90;;;;;;5072061;28;20757;-75
2021/05/16 01:44:13;;;;;;;17.48;4.00;;;10.90;71.40;;;;;;5072072;28;20381;-75
2021/05/16 01:46:39;;;;;;;12.70;4.28;;;10.90;71.80;;;;;;5072018;28;20387;-75
2021/05/16 01:49:05;;;;;;;17.10;4.27;;;10.80;73.20;;;;;;5072208;28;20392;-75
2021/05/16 01:51:31;;;;;;;15.10;3.60;;;11.00;70.40;;;;;;5072014;28;20466;-75
2021/05/16 01:53:56;;;;;;;22.95;4.47;;;11.10;68.30;;;;;;5071947;28;20414;-75
2021/05/16 01:56:25;;;;;;;18.43;4.27;;;11.20;66.80;;;;;;5071934;28;20475;-76
2021/05/16 01:58:51;;;;;;;22.67;4.40;;;11.00;68.00;;;;;;5071826;28;20453;-77
2021/05/16 02:01:17;;;;;;;16.27;4.63;;;11.00;66.60;;;;;;5071792;28;20536;-77
2021/05/16 02:03:44;;;;;;;18.70;4.00;;;11.00;66.20;;;;;;5071587;28;20740;-76
2021/05/16 02:06:10;;;;;;;17.08;4.00;;;10.90;66.80;;;;;;5072223;28;20379;-76
2021/05/16 02:08:39;;;;;;;17.95;4.28;;;10.90;66.90;;;;;;5071961;28;20384;-73
2021/05/16 02:11:05;;;;;;;18.73;4.30;;;10.80;68.60;;;;;;5071463;28;20740;-74
2021/05/16 02:13:31;;;;;;;17.60;4.50;;;10.70;69.00;;;;;;5071417;28;20429;-75
2021/05/16 02:15:57;;;;;;;15.88;4.43;;;10.80;67.20;;;;;;5070130;28;20400;-76
2021/05/16 02:18:23;;;;;;;19.57;4.43;;;10.70;67.40;;;;;;5071507;28;20394;-75
2021/05/16 02:20:49;;;;;;;17.60;4.10;;;10.60;68.40;;;;;;5071524;28;20412;-75
2021/05/16 02:23:15;;;;;;;17.05;4.15;;;10.60;69.20;;;;;;5071158;28;20388;-75
2021/05/16 02:25:40;;;;;;;22.57;4.37;;;10.60;69.30;;;;;;5071078;28;20895;-76
2021/05/16 02:28:06;;;;;;;19.73;4.35;;;10.50;69.90;;;;;;5064952;28;20811;-75
2021/05/16 02:30:32;;;;;;;22.70;4.10;;;10.40;70.70;;;;;;5054243;28;20468;-75
2021/05/16 02:32:57;;;;;;;24.90;4.83;;;10.50;71.00;;;;;;5056329;28;20696;-76
2021/05/16 02:35:23;;;;;;;21.37;4.93;;;10.40;70.20;;;;;;5073858;28;20388;-75
2021/05/16 02:37:49;;;;;;;16.70;4.30;;;10.40;71.00;;;;;;5072523;28;21029;-75
2021/05/16 02:40:15;;;;;;;15.63;4.60;;;10.40;71.90;;;;;;5071271;28;20522;-74
2021/05/16 02:42:40;;;;;;;17.85;4.50;;;10.30;71.80;;;;;;5070580;28;20805;-75
2021/05/16 02:45:07;;;;;;;18.90;4.38;;;10.20;73.50;;;;;;5071096;28;20453;-75
2021/05/16 02:47:32;;;;;;;17.67;4.53;;;10.30;73.30;;;;;;5071912;28;20376;-72
2021/05/16 02:49:58;;;;;;;19.87;4.20;;;10.30;73.00;;;;;;5071213;28;20380;-75
2021/05/16 02:52:23;;;;;;;18.90;4.73;;;10.20;73.20;;;;;;5071662;28;20388;-74
2021/05/16 02:54:49;;;;;;;17.80;4.27;;;10.20;74.60;;;;;;5070951;28;20391;-73
2021/05/16 02:57:14;;;;;;;18.47;4.40;;;10.20;75.70;;;;;;5070059;28;20383;-74
2021/05/16 02:59:40;;;;;;;16.87;4.47;;;10.00;76.90;;;;;;5071676;28;20430;-75
2021/05/16 03:02:06;;;;;;;19.10;4.73;;;9.80;79.70;;;;;;5071564;28;20403;-73
2021/05/16 03:04:31;;;;;;;18.95;5.28;;;9.80;82.70;;;;;;5071592;28;20375;-73
2021/05/16 03:06:57;;;;;;;24.75;5.35;;;9.70;85.00;;;;;;5071883;28;20376;-74
2021/05/16 03:09:24;;;;;;;22.17;5.10;;;9.60;86.50;;;;;;5070502;28;20387;-75
2021/05/16 03:11:49;;;;;;;18.60;4.70;;;9.60;86.10;;;;;;5071562;28;20473;-76
2021/05/16 03:14:16;;;;;;;16.17;4.22;;;9.70;85.90;;;;;;5071105;28;20383;-76
2021/05/16 03:16:42;;;;;;;19.33;4.50;;;9.60;85.80;;;;;;5070906;28;20392;-74
2021/05/16 03:19:07;;;;;;;22.60;4.40;;;9.60;86.90;;;;;;5071110;28;20457;-75
2021/05/16 03:21:33;;;;;;;17.48;4.55;;;9.70;85.30;;;;;;5071103;28;20495;-74
2021/05/16 03:23:59;;;;;;;22.17;4.83;;;9.60;85.50;;;;;;5074378;28;20410;-76
2021/05/16 03:26:25;;;;;;;16.20;4.30;;;9.60;87.80;;;;;;5076386;28;20384;-76
2021/05/16 03:28:51;;;;;;;15.57;4.70;;;9.60;87.60;;;;;;5063823;28;20750;-76
2021/05/16 03:31:16;;;;;;;18.27;4.65;;;9.60;87.60;;;;;;5057325;28;20393;-76
2021/05/16 03:33:42;;;;;;;16.57;4.80;;;9.60;87.00;;;;;;5066891;28;20425;-75
2021/05/16 03:36:07;;;;;;;16.70;4.50;;;9.70;88.00;;;;;;5075230;28;20383;-75
2021/05/16 03:38:33;;;;;;;20.30;4.40;;;9.60;88.40;;;;;;5076714;28;20496;-77
2021/05/16 03:40:59;;;;;;;24.93;5.37;;;9.50;88.60;;;;;;5076647;28;20404;-77
2021/05/16 03:43:26;;;;;;;18.63;4.63;;;9.50;89.20;;;;;;5076234;28;20375;-76
2021/05/16 03:45:52;;;;;;;16.50;4.97;;;9.40;89.60;;;;;;5075662;28;20498;-77
2021/05/16 03:48:18;;;;;;;21.50;5.00;;;9.30;91.20;;;;;;5075269;28;20438;-76
2021/05/16 03:50:43;;;;;;;21.50;4.63;;;9.30;93.20;;;;;;5077160;28;20998;-75
2021/05/16 03:53:09;;;;;;;25.00;5.43;;;9.30;92.30;;;;;;5078872;28;20470;-76
2021/05/16 03:55:34;;;;;;;22.40;4.80;;;9.30;91.80;;;;;;5077957;28;20387;-76
2021/05/16 03:58:00;;;;;;;17.80;4.20;;;9.30;92.40;;;;;;5075719;28;20397;-76
2021/05/16 04:00:26;;;;;;;16.93;4.67;;;9.40;92.00;;;;;;5077163;28;20468;-75
2021/05/16 04:02:51;;;;;;;21.35;5.00;;;9.30;91.40;;;;;;5075184;28;20427;-76
2021/05/16 04:05:17;;;;;;;17.10;4.50;;;9.30;91.20;;;;;;5075288;28;20383;-75
2021/05/16 04:07:43;;;;;;;19.90;4.88;;;9.30;92.40;;;;;;5074836;28;20466;-77
2021/05/16 04:10:10;;;;;;;18.10;4.20;;;9.40;92.10;;;;;;5078077;28;20390;-77
2021/05/16 04:12:36;;;;;;;15.27;4.50;;;9.50;92.00;;;;;;5076198;28;21015;-77
2021/05/16 04:15:04;;;;;;;16.48;4.97;;;9.50;90.80;;;;;;5076753;28;20504;-76
2021/05/16 04:17:29;;;;;;;22.42;5.38;;;9.70;89.10;;;;;;5075679;28;20463;-76
2021/05/16 04:19:55;;;;;;;15.10;4.95;;;9.70;88.30;;;;;;5077285;28;20465;-76
2021/05/16 04:22:20;;;;;;;21.95;5.30;;;9.80;87.80;;;;;;5074541;28;20384;-77
2021/05/16 04:24:46;;;;;;;12.90;4.30;;;9.80;87.30;;;;;;5075200;28;20394;-77
2021/05/16 04:27:11;;;;;;;17.85;4.57;;;9.90;85.30;;;;;;5075596;28;20788;-77
2021/05/16 04:29:37;;;;;;;16.95;4.80;;;9.80;85.10;;;;;;5056641;28;20785;-74
2021/05/16 04:32:03;;;;;;;20.33;5.35;;;9.70;87.10;;;;;;5053881;28;20455;-77
2021/05/16 04:34:29;;;;;;;21.15;5.53;;;9.70;87.60;;;;;;5070525;28;20475;-76
2021/05/16 04:36:54;;;;;;;11.60;4.97;;;9.70;88.30;;;;;;5074478;28;20415;-77
2021/05/16 04:39:20;;;;;;;15.20;5.10;;;9.70;88.40;;;;;;5075766;28;20388;-77
2021/05/16 04:41:46;;;;;;;15.25;4.78;;;9.80;86.40;;;;;;5075467;28;20820;-77
2021/05/16 04:44:12;;;;;;;17.33;5.63;;;9.80;87.00;;;;;;5074375;28;20896;-76
2021/05/16 04:46:37;;;;;;;20.75;5.10;;;9.90;86.80;;;;;;5075235;28;20379;-76
2021/05/16 04:49:04;;;;;;;12.13;4.40;;;9.90;85.50;;;;;;5074213;28;20391;-76
2021/05/16 04:51:30;;;;;;;11.90;4.70;;;10.10;83.20;;;;;;5076893;28;20376;-77
2021/05/16 04:53:55;;;;;;;20.58;6.10;;;10.20;82.40;;;;;;5080671;28;20376;-75
2021/05/16 04:56:21;;;;;;;15.83;5.13;;;10.30;82.60;;;;;;5081042;28;20955;-77
2021/05/16 04:58:47;;;;;;;17.40;5.07;;;10.40;82.50;;;;;;5079626;28;20482;-76
2021/05/16 05:01:13;;;;;;;20.47;4.50;;;10.60;82.00;;;;;;5079546;28;20395;-77
2021/05/16 05:03:39;;;;;;;17.25;5.00;;;10.80;78.80;;;;;;5082048;28;20443;-76
2021/05/16 05:06:04;;;;;;;14.00;4.57;;;11.00;75.90;;;;;;5082699;28;20400;-77
2021/05/16 05:08:30;;;;;;;15.60;4.67;;;11.30;74.40;;;;;;5083747;28;20383;-75
2021/05/16 05:10:56;;;;;;;14.73;4.63;;;11.50;71.20;;;;;;5083444;28;20419;-75
2021/05/16 05:13:22;;;;;;;11.10;4.70;;;11.60;68.60;;;;;;5081979;28;20702;-77
2021/05/16 05:15:48;;;;;;;9.70;4.22;;;11.60;64.70;;;;;;5081748;28;20429;-77
2021/05/16 05:18:18;;;;;;;15.43;4.35;;;11.60;66.80;;;;;;5081843;28;20884;-77
2021/05/16 05:20:47;;;;;;;11.68;4.60;;;11.70;65.40;;;;;;5080462;28;20733;-77
2021/05/16 05:23:12;;;;;;;15.05;4.90;;;11.80;64.20;;;;;;5078100;28;20694;-76
2021/05/16 05:25:38;;;;;;;16.70;4.63;;;11.80;64.80;;;;;;5077445;28;20388;-76
2021/05/16 05:28:04;;;;;;;13.68;5.00;;;11.90;64.00;;;;;;5074391;28;20389;-76
2021/05/16 05:30:30;;;;;;;11.57;4.70;;;12.00;62.60;;;;;;5059051;28;20409;-77
2021/05/16 05:32:55;;;;;;;19.45;5.22;;;12.20;62.20;;;;;;5062157;28;20392;-77
2021/05/16 05:35:21;;;;;;;15.88;5.07;;;12.20;59.60;;;;;;5082218;28;20406;-77
2021/05/16 05:37:47;;;;;;;15.88;4.78;;;12.10;61.30;;;;;;5081033;28;20391;-76
2021/05/16 05:40:13;;;;;;;13.88;4.82;;;12.10;61.90;;;;;;5080591;28;20468;-77
2021/05/16 05:42:39;;;;;;;14.77;4.32;;;12.10;62.10;;;;;;5073169;28;20388;-76
2021/05/16 05:45:06;;;;;;;15.60;4.90;;;12.20;60.80;;;;;;5073752;28;20376;-77
2021/05/16 05:47:32;;;;;;;14.57;4.47;;;12.30;62.10;;;;;;5074668;28;20899;-76
2021/05/16 05:49:57;;;;;;;14.32;4.25;;;12.40;61.50;;;;;;5073604;28;20380;-76
2021/05/16 05:52:23;;;;;;;13.02;4.38;;;12.80;58.30;;;;;;5073643;28;20380;-76
2021/05/16 05:54:49;;;;;;;10.80;4.38;;;13.20;56.30;;;;;;5071736;28;20398;-75
2021/05/16 05:57:15;;;;;;;11.83;4.57;;;13.50;52.90;;;;;;5073754;28;20417;-76
2021/05/16 05:59:40;;;;;;;12.13;4.57;;;13.80;51.00;;;;;;5072284;28;20544;-76
2021/05/16 06:02:06;;;;;;;10.43;3.50;;;14.10;47.80;;;;;;5072407;28;20399;-76
2021/05/16 06:04:31;;;;;;;11.52;4.22;;;14.30;44.70;;;;;;5072767;28;20419;-77
2021/05/16 06:06:57;;;;;;;14.37;4.30;;;14.50;42.80;;;;;;5073051;28;20367;-76
2021/05/16 06:09:23;;;;;;;12.60;3.80;;;14.50;42.80;;;;;;5076153;28;20477;-77
2021/05/16 06:11:48;;;;;;;15.47;4.20;;;14.40;43.40;;;;;;5081822;28;20930;-76
2021/05/16 06:14:14;;;;;;;16.07;4.17;;;14.40;43.50;;;;;;5081127;28;20481;-75
2021/05/16 06:16:39;;;;;;;12.60;3.83;;;14.10;46.10;;;;;;5073575;28;20432;-76
2021/05/16 06:19:05;;;;;;;10.05;4.03;;;13.80;50.10;;;;;;5072676;28;20396;-77
2021/05/16 06:21:31;;;;;;;15.80;4.10;;;13.60;51.20;;;;;;5073665;28;20401;-77
2021/05/16 06:26:32;;;;;;;12.45;4.13;;;13.40;54.20;;;;;;5074408;28;20398;-77
2021/05/16 06:28:58;;;;;;;17.20;4.80;;;13.40;55.40;;;;;;5060413;28;20389;-77
2021/05/16 06:31:24;;;;;;;14.05;3.97;;;13.40;55.30;;;;;;5053682;28;20398;-77
2021/05/16 06:33:50;;;;;;;18.42;4.50;;;13.30;57.80;;;;;;5061216;28;20380;-77
2021/05/16 06:36:16;;;;;;;13.25;4.47;;;13.30;58.40;;;;;;5070714;28;20394;-76
2021/05/16 06:38:41;;;;;;;15.00;4.07;;;13.30;59.30;;;;;;5072293;28;20392;-76
2021/05/16 06:41:07;;;;;;;13.13;4.60;;;13.40;57.60;;;;;;5072369;28;20434;-76
2021/05/16 06:43:33;;;;;;;11.67;4.00;;;13.40;57.10;;;;;;5072268;28;20379;-76
2021/05/16 06:45:58;;;;;;;12.45;4.60;;;13.30;57.80;;;;;;5072911;28;20375;-77
2021/05/16 06:48:26;;;;;;;16.10;4.55;;;13.40;58.50;;;;;;5073619;28;20903;-77
2021/05/16 06:50:52;;;;;;;13.00;4.60;;;13.40;59.50;;;;;;5073074;28;20395;-76
2021/05/16 06:53:18;;;;;;;12.80;5.07;;;13.40;59.20;;;;;;5073191;28;20522;-77
2021/05/16 06:55:43;;;;;;;15.18;4.40;;;13.30;60.20;;;;;;5073540;28;20384;-76
2021/05/16 06:58:12;;;;;;;16.40;5.32;;;13.50;59.70;;;;;;5074956;28;20388;-77
2021/05/16 07:00:37;;;;;;;13.95;4.82;;;13.50;55.80;;;;;;5072891;28;20408;-77
2021/05/16 07:03:03;;;;;;;13.40;4.17;;;13.60;58.00;;;;;;5073470;28;20807;-77
2021/05/16 07:05:28;;;;;;;17.03;4.50;;;13.40;58.70;;;;;;5075824;28;20380;-77
2021/05/16 07:07:54;;;;;;;15.20;4.20;;;13.60;57.30;;;;;;5073828;28;20414;-76
2021/05/16 07:10:19;;;;;;;17.90;5.00;;;13.50;57.20;;;;;;5074473;28;20455;-76
2021/05/16 07:12:45;;;;;;;18.63;4.85;;;13.40;59.20;;;;;;5071428;28;20876;-77
2021/05/16 07:15:13;;;;;;;11.85;4.65;;;13.40;58.50;;;;;;5072971;28;20849;-77
2021/05/16 07:17:39;;;;;;;13.68;4.60;;;13.70;57.30;;;;;;5071467;28;20864;-76
2021/05/16 07:20:05;;;;;;;15.85;4.65;;;13.70;55.60;;;;;;5073690;28;20391;-77
2021/05/16 07:22:31;;;;;;;18.15;4.65;;;13.70;55.80;;;;;;5072651;28;20380;-74
2021/05/16 07:24:56;;;;;;;16.02;4.80;;;13.90;53.90;;;;;;5073572;28;20737;-75
2021/05/16 07:27:22;;;;;;;11.73;4.50;;;14.10;52.90;;;;;;5075910;28;20392;-76
2021/05/16 07:29:49;;;;;;;15.60;5.00;;;14.10;51.50;;;;;;5053225;28;20385;-75
2021/05/16 07:32:14;;;;;;;13.05;4.47;;;14.30;51.80;;;;;;5056353;28;20400;-76
2021/05/16 07:34:40;;;;;;;15.73;5.40;;;14.60;51.00;;;;;;5071961;28;20384;-75
2021/05/16 07:37:05;;;;;;;15.65;4.38;;;14.80;47.80;;;;;;5072467;28;20908;-77
2021/05/16 07:39:31;;;;;;;17.90;4.50;;;15.00;45.90;;;;;;5072745;28;20395;-77
2021/05/16 07:41:56;;;;;;;16.73;4.60;;;15.20;42.70;;;;;;5071617;28;20407;-76
2021/05/16 07:44:22;;;;;;;16.33;4.93;;;15.30;43.50;;;;;;5072963;28;20473;-75
2021/05/16 07:46:48;;;;;;;18.13;5.20;;;15.40;41.70;;;;;;5072266;28;20387;-77
2021/05/16 07:49:13;;;;;;;16.50;4.63;;;15.60;40.40;;;;;;5071888;28;20433;-76
2021/05/16 07:51:40;;;;;;;15.75;4.72;;;15.70;40.80;;;;;;5070898;28;20411;-76
2021/05/16 07:54:05;;;;;;;17.27;4.43;;;15.60;41.60;;;;;;5051498;28;20398;-76
2021/05/16 07:56:31;;;;;;;14.67;4.60;;;15.80;38.60;;;;;;5050936;28;20754;-76
2021/05/16 07:58:56;;;;;;;17.67;5.22;;;15.80;36.70;;;;;;5053008;28;20393;-76
2021/05/16 08:01:22;;;;;;;17.55;4.78;;;15.80;38.10;;;;;;5053190;28;20413;-77
2021/05/16 08:03:48;;;;;;;16.03;5.07;;;15.70;37.60;;;;;;5051458;28;20412;-77
2021/05/16 08:06:13;;;;;;;17.13;4.70;;;15.80;39.50;;;;;;5051853;28;20389;-75
2021/05/16 08:08:39;;;;;;;13.17;4.00;;;16.00;35.40;;;;;;5053837;28;20389;-77
2021/05/16 08:11:05;;;;;;;14.30;3.70;;;16.20;33.60;;;;;;5055927;28;20413;-76
2021/05/16 08:13:30;;;;;;;9.83;3.10;;;16.20;34.00;;;;;;5058010;28;20391;-76
2021/05/16 08:15:56;;;;;;;15.70;3.80;;;16.30;32.90;;;;;;5063676;28;20925;-78
2021/05/16 08:18:22;;;;;;;15.10;3.80;;;16.20;32.60;;;;;;5060072;28;20802;-75
2021/05/16 08:20:47;;;;;;;10.73;3.00;;;16.30;33.00;;;;;;5056883;28;20409;-76
2021/05/16 08:23:13;;;;;;;9.90;2.90;;;16.60;31.30;;;;;;5057641;28;20408;-77
2021/05/16 08:25:39;;;;;;;11.15;2.83;;;16.70;27.90;;;;;;5057406;28;20404;-77
2021/05/16 08:28:05;;;;;;;10.23;2.90;;;16.90;27.60;;;;;;5056359;28;20401;-77
2021/05/16 08:30:31;;;;;;;11.90;3.20;;;16.80;27.90;;;;;;5056996;28;20439;-77
2021/05/16 08:32:56;;;;;;;11.13;2.85;;;16.70;28.10;;;;;;5058044;28;20381;-78
2021/05/16 08:35:22;;;;;;;9.63;2.70;;;16.70;28.20;;;;;;5075941;28;20421;-77
2021/05/16 08:37:48;;;;;;;9.50;3.00;;;16.70;26.10;;;;;;5075709;28;21009;-77
2021/05/16 08:40:15;;;;;;;5.33;2.77;;;16.80;26.90;;;;;;5077037;28;20411;-77
2021/05/16 08:42:42;;;;;;;6.47;2.75;;;17.20;26.50;;;;;;5082147;28;20475;-77
2021/05/16 08:45:10;;;;;;;6.68;2.85;;;17.40;26.70;;;;;;5082780;28;20372;-77
2021/05/16 08:47:41;;;;;;;11.13;2.60;;;17.50;25.40;;;;;;5079862;28;20387;-76
2021/05/16 08:50:09;;;;;;;12.65;3.30;;;17.40;24.00;;;;;;5076684;28;20809;-78
2021/05/16 08:52:35;;;;;;;14.00;3.13;;;17.10;24.90;;;;;;5076178;28;20587;-78
2021/05/16 08:55:02;;;;;;;9.32;3.60;;;17.10;24.80;;;;;;5075906;28;20387;-77
2021/05/16 08:57:28;;;;;;;10.10;3.40;;;17.00;24.40;;;;;;5075841;28;20894;-78
2021/05/16 09:00:06;;;;;;;10.73;3.23;;;16.60;26.20;;;;;;5076205;28;20388;-77
2021/05/16 09:02:31;;;;;;;11.63;3.47;;;16.40;26.30;;;;;;5075800;28;20411;-76
2021/05/16 09:04:57;;;;;;;15.07;3.80;;;16.50;25.10;;;;;;5080234;28;20376;-77
2021/05/16 09:07:32;;;;;;;11.70;4.00;;;16.50;26.90;;;;;;5084226;28;20379;-77
2021/05/16 09:09:58;;;;;;;15.98;4.53;;;16.70;23.60;;;;;;5079100;28;20384;-77
2021/05/16 09:12:24;;;;;;;14.55;4.03;;;16.60;24.00;;;;;;5076131;28;20861;-77
2021/05/16 09:14:57;;;;;;;21.07;4.70;;;16.40;25.40;;;;;;5074362;28;20390;-76
2021/05/16 09:17:33;;;;;;;12.63;3.80;;;16.50;25.10;;;;;;5074173;28;20923;-76
2021/05/16 09:19:59;;;;;;;8.77;3.63;;;16.60;23.80;;;;;;5073805;28;20428;-77
2021/05/16 09:22:35;;;;;;;14.02;4.50;;;16.70;23.60;;;;;;5075486;28;20399;-76
2021/05/16 09:27:33;;;;;;;17.63;4.00;;;16.60;22.60;;;;;;5030710;28;20946;-72
2021/05/16 09:29:59;;;;;;;17.42;4.90;;;16.70;21.40;;;;;;5032289;28;20386;-73
2021/05/16 09:32:27;;;;;;;14.93;4.22;;;16.70;22.40;;;;;;5032461;28;20379;-73
2021/05/16 09:34:54;;;;;;;14.40;4.27;;;16.70;26.90;;;;;;5032006;28;20411;-73
2021/05/16 09:37:20;;;;;;;7.75;2.55;;;16.20;30.30;;;;;;5032444;28;20462;-72
2021/05/16 09:39:46;;;;;;;8.27;2.30;;;15.60;29.60;;;;;;5032421;28;20437;-74
2021/05/16 09:42:13;;;;;;;5.50;2.07;;;15.20;33.70;;;;;;5033165;28;20814;-74
2021/05/16 09:44:47;;;;;;;4.88;2.28;;;15.10;32.40;;;;;;5032160;28;20441;-74
2021/05/16 09:47:20;;;;;;;6.68;1.92;;;14.80;32.70;;;;;;5030861;28;20391;-73
2021/05/16 09:49:53;;;;;;;5.50;1.88;;;14.60;33.70;;;;;;5032164;28;20410;-73
2021/05/16 09:52:30;;;;;;;4.70;1.90;;;14.40;33.20;;;;;;5030622;28;20391;-74
2021/05/16 09:54:59;;;;;;;4.05;1.60;;;14.40;35.90;;;;;;5031967;28;20470;-74
2021/05/16 09:57:27;;;;;;;3.30;1.30;;;14.60;32.00;;;;;;5031898;28;20387;-72
2021/05/16 09:59:54;;;;;;;8.65;4.47;;;14.70;30.20;;;;;;5031683;28;20379;-74
2021/05/16 10:02:24;;;;;;;5.65;2.00;;;14.70;31.90;;;;;;5031696;28;20811;-74
2021/05/16 10:04:52;;;;;;;6.57;2.30;;;14.70;31.20;;;;;;5031328;28;20437;-74
2021/05/16 10:07:19;;;;;;;5.97;2.20;;;14.80;30.70;;;;;;5031578;28;20903;-74
2021/05/16 10:09:45;;;;;;;9.27;3.20;;;15.10;34.60;;;;;;5031746;28;20816;-74
2021/05/16 10:12:11;;;;;;;7.63;2.90;;;15.50;33.90;;;;;;5032489;28;20466;-73
2021/05/16 10:14:42;;;;;;;8.68;3.35;;;15.70;28.70;;;;;;5032273;28;20379;-73
2021/05/16 10:17:09;;;;;;;9.60;3.13;;;15.90;32.20;;;;;;5031841;28;20421;-74
2021/05/16 10:19:38;;;;;;;6.25;1.95;;;15.90;32.40;;;;;;5032332;28;20444;-74
2021/05/16 10:22:18;;;;;;;6.30;1.63;;;15.30;32.40;;;;;;5031067;28;20403;-75
2021/05/16 10:24:53;;;;;;;3.63;1.80;;;14.90;29.00;;;;;;5031878;28;20387;-74
2021/05/16 10:27:30;;;;;;;3.20;1.40;;;15.10;30.80;;;;;;5031294;28;20910;-72
2021/05/16 10:30:04;;;;;;;5.07;1.70;;;15.70;31.20;;;;;;5011454;28;20779;-73
2021/05/16 10:32:40;;;;;;;4.25;1.40;;;16.30;27.30;;;;;;5011713;28;20841;-75
2021/05/16 10:35:07;;;;;;;6.40;1.77;;;16.60;23.10;;;;;;5029534;28;20387;-74
2021/05/16 10:37:54;;;;;;;5.22;2.05;;;16.90;22.80;;;;;;5030798;28;20432;-74
2021/05/16 10:40:20;;;;;;;6.68;1.77;;;17.50;20.60;;;;;;5031242;28;20406;-73
2021/05/16 10:42:46;;;;;;;4.30;1.40;;;18.00;18.30;;;;;;5030848;28;20375;-73
2021/05/16 10:45:14;;;;;;;2.53;1.30;;;18.20;16.90;;;;;;5031250;28;20452;-73
2021/05/16 10:47:52;;;;;;;4.00;1.58;;;18.50;16.60;;;;;;5030780;28;20383;-73
2021/05/16 10:50:24;;;;;;;4.55;1.60;;;18.40;16.00;;;;;;5029565;28;20908;-73
2021/05/16 10:53:00;;;;;;;6.18;1.80;;;18.20;15.40;;;;;;5030339;28;20386;-74
2021/05/16 10:55:46;;;;;;;5.18;1.80;;;18.20;14.60;;;;;;5030514;28;20386;-75
2021/05/16 10:58:38;;;;;;;6.47;2.40;;;18.00;15.00;;;;;;5030697;28;20387;-75
2021/05/16 11:01:08;;;;;;;12.90;2.50;;;18.00;15.10;;;;;;5030597;28;20979;-73
2021/05/16 11:03:53;;;;;;;6.18;2.70;;;18.10;17.90;;;;;;5030383;28;20383;-73
2021/05/16 11:06:39;;;;;;;8.95;2.60;;;18.20;14.40;;;;;;5030935;28;20403;-73
2021/05/16 11:09:14;;;;;;;6.47;2.10;;;18.20;16.90;;;;;;5019116;28;20379;-73
2021/05/16 11:11:41;;;;;;;6.28;2.55;;;18.60;16.80;;;;;;5030417;28;20756;-73
2021/05/16 11:14:27;;;;;;;9.57;2.65;;;19.00;14.90;;;;;;5029164;28;20733;-74
2021/05/16 11:17:02;;;;;;;7.28;2.38;;;19.10;11.60;;;;;;5029122;28;20937;-74
2021/05/16 11:19:33;;;;;;;8.93;2.80;;;19.10;12.20;;;;;;5030826;28;20457;-72
2021/05/16 11:22:19;;;;;;;7.57;2.70;;;19.40;14.10;;;;;;5030417;28;20441;-73
2021/05/16 11:24:52;;;;;;;5.57;2.60;;;19.50;13.80;;;;;;5030090;28;20419;-75
2021/05/16 11:27:19;;;;;;;6.23;2.00;;;19.30;13.10;;;;;;5030263;28;20871;-73
2021/05/16 11:29:49;;;;;;;6.90;2.53;;;19.40;13.20;;;;;;5030108;28;20521;-75
2021/05/16 11:32:19;;;;;;;9.23;2.70;;;19.10;11.90;;;;;;5030887;28;20398;-74
2021/05/16 11:34:44;;;;;;;6.28;2.20;;;18.90;15.30;;;;;;5030064;28;20807;-73
2021/05/16 11:37:19;;;;;;;7.60;2.50;;;19.10;13.70;;;;;;5030424;28;20387;-74
2021/05/16 11:39:45;;;;;;;4.68;2.67;;;19.20;12.90;;;;;;5030754;28;20395;-73
2021/05/16 11:42:11;;;;;;;7.75;2.10;;;19.40;12.30;;;;;;5030266;28;20564;-76
2021/05/16 11:44:36;;;;;;;5.90;2.30;;;19.70;11.10;;;;;;5032779;28;20419;-73
2021/05/16 11:47:02;;;;;;;12.80;2.80;;;20.20;10.50;;;;;;5034053;28;20383;-74
2021/05/16 11:49:32;;;;;;;6.35;2.60;;;20.80;10.60;;;;;;5034451;28;20390;-74
2021/05/16 11:52:04;;;;;;;8.70;2.58;;;20.90;8.60;;;;;;5032917;28;20410;-75
2021/05/16 11:54:43;;;;;;;9.85;2.75;;;20.70;9.30;;;;;;5033596;28;20394;-76
2021/05/16 11:57:14;;;;;;;7.72;3.05;;;20.60;9.00;;;;;;5033988;28;20729;-74
2021/05/16 11:59:40;;;;;;;7.70;2.42;;;19.80;10.70;;;;;;5034018;28;20382;-74
2021/05/16 12:02:05;;;;;;;6.43;2.40;;;19.60;11.00;;;;;;5033923;28;20448;-72
2021/05/16 12:04:38;;;;;;;8.30;2.70;;;19.40;11.20;;;;;;5033511;28;20868;-72
2021/05/16 12:07:04;;;;;;;8.15;3.00;;;19.50;12.30;;;;;;5033805;28;20386;-73
2021/05/16 12:09:41;;;;;;;8.48;2.80;;;19.70;11.90;;;;;;5033580;28;20391;-74
2021/05/16 12:12:20;;;;;;;9.73;3.25;;;19.90;11.10;;;;;;5033598;28;20387;-74
2021/05/16 12:14:47;;;;;;;7.03;2.67;;;20.10;10.20;;;;;;5032244;28;20406;-74
2021/05/16 12:17:16;;;;;;;6.90;2.83;;;20.40;9.70;;;;;;5033552;28;20391;-72
2021/05/16 12:19:42;;;;;;;7.72;2.88;;;20.90;8.60;;;;;;5033590;28;20465;-73
2021/05/16 12:22:13;;;;;;;6.18;2.30;;;21.40;8.40;;;;;;5033413;28;20465;-72
2021/05/16 12:24:47;;;;;;;9.25;3.10;;;21.60;7.80;;;;;;5032765;28;20394;-73
2021/05/16 12:27:20;;;;;;;9.05;2.85;;;21.40;8.60;;;;;;5032993;28;20401;-73
2021/05/16 12:29:47;;;;;;;4.80;2.45;;;21.30;9.00;;;;;;5013430;28;20955;-73
2021/05/16 12:32:26;;;;;;;10.93;3.00;;;21.40;8.80;;;;;;5013132;28;20508;-73
2021/05/16 12:34:53;;;;;;;9.30;2.70;;;21.60;8.10;;;;;;5030983;28;20391;-73
2021/05/16 12:37:21;;;;;;;5.80;2.22;;;21.60;6.50;;;;;;5033026;28;20430;-73
2021/05/16 12:39:48;;;;;;;5.47;2.50;;;21.10;7.80;;;;;;5032833;28;20390;-73
2021/05/16 12:42:38;;;;;;;8.83;2.50;;;20.90;8.50;;;;;;5032504;28;20407;-72
2021/05/16 12:45:13;;;;;;;7.60;2.75;;;20.70;7.80;;;;;;5032936;28;20383;-73
2021/05/16 12:47:38;;;;;;;8.50;2.60;;;20.20;8.70;;;;;;5032698;28;20383;-73